Dallas, Texas
Current Conditions -  °F | °C
As of 6:16 AM on Saturday 20 Dec 2014 (Local Time) from KDAL Reporting Station
Haze Haze  
Wind Chill: 43°   Ceiling: 2100
Heat Index: 46°   Visibility: 6mi
Dew Point: 42°   Wind: 6mph
Humidity: 86%   Direction: 10°N
Pressure: 30.22"   Gusts: NA
Location:  32.78°N, 96.79°W
Report Text: KDAL 201216Z 01005KT 6SM BR SCT008 OVC021 08/06 A3022 RMK AO2 T00780056
Loading
Personal Weather Stations






























Interactive Weather Map New forecast layout! Learn more

10-Day Weather Forecast

Advertisements
Track Severe Weather on mobile